createdAt,value
2018-11-14T00:00:28.898Z,14.00
2018-11-14T00:02:58.889Z,14.30
2018-11-14T00:05:28.251Z,14.30
2018-11-14T00:07:57.806Z,14.10
2018-11-14T00:10:27.055Z,14.20
2018-11-14T00:12:56.288Z,14.10
2018-11-14T00:15:26.227Z,14.20
2018-11-14T00:17:55.583Z,14.30
2018-11-14T00:20:24.769Z,14.40
2018-11-14T00:22:54.098Z,14.40
2018-11-14T00:25:23.320Z,14.40
2018-11-14T00:27:52.819Z,14.40
2018-11-14T00:30:23.252Z,14.50
2018-11-14T00:32:52.629Z,14.50
2018-11-14T00:35:21.807Z,14.30
2018-11-14T00:37:51.434Z,14.30
2018-11-14T00:40:21.167Z,14.50
2018-11-14T00:42:50.610Z,14.40
2018-11-14T00:45:20.803Z,14.20
2018-11-14T00:47:50.322Z,14.10
2018-11-14T00:50:19.993Z,13.80
2018-11-14T00:52:49.176Z,13.70
2018-11-14T00:55:21.326Z,13.90
2018-11-14T00:57:51.763Z,14.00
2018-11-14T01:00:22.325Z,14.20
2018-11-14T01:02:51.599Z,14.20
2018-11-14T01:05:20.920Z,14.30
2018-11-14T01:07:50.311Z,14.40
2018-11-14T01:10:20.636Z,14.50
2018-11-14T01:12:50.291Z,14.30
2018-11-14T01:15:20.672Z,14.20
2018-11-14T01:17:50.262Z,14.30
2018-11-14T01:20:20.601Z,14.00
2018-11-14T01:22:49.949Z,14.30
2018-11-14T01:25:19.443Z,14.40
2018-11-14T01:27:48.878Z,14.10
2018-11-14T01:30:23.201Z,14.30
2018-11-14T01:32:52.788Z,14.20
2018-11-14T01:35:22.285Z,14.30
2018-11-14T01:37:51.494Z,14.40
2018-11-14T01:40:22.747Z,14.40
2018-11-14T01:42:53.310Z,14.50
2018-11-14T01:45:22.690Z,14.10
2018-11-14T01:47:52.013Z,14.20
2018-11-14T01:50:21.181Z,14.30
2018-11-14T01:52:50.463Z,14.20
2018-11-14T01:55:20.782Z,14.30
2018-11-14T01:57:50.050Z,14.40
2018-11-14T02:00:24.587Z,14.40
2018-11-14T02:02:54.144Z,14.40
2018-11-14T02:05:23.482Z,14.40
2018-11-14T02:07:52.722Z,14.40
2018-11-14T02:10:22.051Z,14.30
2018-11-14T02:12:51.344Z,14.40
2018-11-14T02:15:25.060Z,14.10
2018-11-14T02:17:54.388Z,14.20
2018-11-14T02:20:23.632Z,14.30
2018-11-14T02:22:52.915Z,14.30
2018-11-14T02:25:22.347Z,14.30
2018-11-14T02:27:51.507Z,14.30
2018-11-14T02:30:22.046Z,14.20
2018-11-14T02:32:51.238Z,14.10
2018-11-14T02:35:20.483Z,14.10
2018-11-14T02:37:49.771Z,13.80
2018-11-14T02:40:21.739Z,14.00
2018-11-14T02:42:51.047Z,13.50
2018-11-14T02:45:20.319Z,13.80
2018-11-14T02:47:50.120Z,13.60
2018-11-14T02:50:19.721Z,12.90
2018-11-14T02:52:49.540Z,12.90
2018-11-14T02:55:18.882Z,13.60
2018-11-14T02:57:48.101Z,13.70
2018-11-14T03:00:18.652Z,13.60
2018-11-14T03:02:47.979Z,13.50
2018-11-14T03:05:17.251Z,13.50
2018-11-14T03:07:46.587Z,13.80
2018-11-14T03:10:17.972Z,13.70
2018-11-14T03:12:47.192Z,13.00
2018-11-14T03:15:19.569Z,12.50
2018-11-14T03:17:48.688Z,12.30
2018-11-14T03:20:22.431Z,13.10
2018-11-14T03:22:51.579Z,12.80
2018-11-14T03:25:20.656Z,12.60
2018-11-14T03:27:49.892Z,13.30
2018-11-14T03:30:19.493Z,13.40
2018-11-14T03:32:48.665Z,13.10
2018-11-14T03:35:17.983Z,13.20
2018-11-14T03:37:47.189Z,13.60
2018-11-14T03:40:17.197Z,13.20
2018-11-14T03:42:46.536Z,12.80
2018-11-14T03:45:16.178Z,13.40
2018-11-14T03:47:45.529Z,13.20
2018-11-14T03:50:14.887Z,13.60
2018-11-14T03:52:44.211Z,13.60
2018-11-14T03:55:13.497Z,13.50
2018-11-14T03:57:42.717Z,13.80
2018-11-14T04:00:14.080Z,13.60
2018-11-14T04:02:45.272Z,13.60
2018-11-14T04:05:14.576Z,13.70
2018-11-14T04:07:43.714Z,13.20
2018-11-14T04:10:14.208Z,12.90
2018-11-14T04:12:43.778Z,13.30
2018-11-14T04:15:14.091Z,13.40
2018-11-14T04:17:43.329Z,13.00
2018-11-14T04:20:14.004Z,13.30
2018-11-14T04:22:43.575Z,13.40
2018-11-14T04:25:19.679Z,13.50
2018-11-14T04:27:49.371Z,13.20
2018-11-14T04:30:19.715Z,13.10
2018-11-14T04:32:49.087Z,13.20
2018-11-14T04:35:19.089Z,13.30
2018-11-14T04:37:48.317Z,13.20
2018-11-14T04:40:19.956Z,13.00
2018-11-14T04:42:49.267Z,13.20
2018-11-14T04:45:22.863Z,13.00
2018-11-14T04:47:52.383Z,13.30
2018-11-14T04:50:23.211Z,13.30
2018-11-14T04:52:53.227Z,13.10
2018-11-14T04:55:23.561Z,13.40
2018-11-14T04:57:52.716Z,13.10
2018-11-14T05:00:23.076Z,12.90
2018-11-14T05:02:52.355Z,12.70
2018-11-14T05:05:22.833Z,12.90
2018-11-14T05:07:52.279Z,13.30
2018-11-14T05:10:24.116Z,13.30
2018-11-14T05:12:53.489Z,13.50
2018-11-14T05:15:23.823Z,13.40
2018-11-14T05:17:53.393Z,13.20
2018-11-14T05:20:22.880Z,13.10
2018-11-14T05:22:52.947Z,13.20
2018-11-14T05:25:22.288Z,13.20
2018-11-14T05:27:51.456Z,12.90
2018-11-14T05:30:22.699Z,13.20
2018-11-14T05:32:52.470Z,13.40
2018-11-14T05:35:21.626Z,13.30
2018-11-14T05:37:51.047Z,13.20
2018-11-14T05:40:21.437Z,12.80
2018-11-14T05:42:51.189Z,12.00
2018-11-14T05:45:22.817Z,11.90
2018-11-14T05:47:52.084Z,12.10
2018-11-14T05:50:22.145Z,12.40
2018-11-14T05:52:51.510Z,12.70
2018-11-14T05:55:20.770Z,12.80
2018-11-14T05:57:49.915Z,12.30
2018-11-14T06:00:27.417Z,12.40
2018-11-14T06:02:56.885Z,12.10
2018-11-14T06:05:26.600Z,11.80
2018-11-14T06:07:57.103Z,12.10
2018-11-14T06:10:26.544Z,12.60
2018-11-14T06:12:55.951Z,12.90
2018-11-14T06:15:25.319Z,12.80
2018-11-14T06:17:55.724Z,13.00
2018-11-14T06:20:24.963Z,13.00
2018-11-14T06:22:54.580Z,12.90
2018-11-14T06:25:28.363Z,12.90
2018-11-14T06:27:58.438Z,12.80
2018-11-14T06:30:27.843Z,12.40
2018-11-14T06:32:57.492Z,12.60
2018-11-14T06:35:26.605Z,12.50
2018-11-14T06:37:56.111Z,12.70
2018-11-14T06:40:26.173Z,12.80
2018-11-14T06:42:55.351Z,12.90
2018-11-14T06:45:27.609Z,12.90
2018-11-14T06:47:58.000Z,12.40
2018-11-14T06:50:27.111Z,12.00
2018-11-14T06:52:58.665Z,12.40
2018-11-14T06:55:27.977Z,12.10
2018-11-14T06:57:57.302Z,12.30
2018-11-14T07:00:29.015Z,12.30
2018-11-14T07:02:59.204Z,12.70
2018-11-14T07:05:28.507Z,12.50
2018-11-14T07:07:57.890Z,12.60
2018-11-14T07:10:28.416Z,11.80
2018-11-14T07:13:02.854Z,12.40
2018-11-14T07:15:31.982Z,12.90
2018-11-14T07:18:01.299Z,13.20
2018-11-14T07:20:32.351Z,13.30
2018-11-14T07:23:01.778Z,13.10
2018-11-14T07:25:30.948Z,13.30
2018-11-14T07:28:00.223Z,13.40
2018-11-14T07:30:30.344Z,13.30
2018-11-14T07:33:03.984Z,12.80
2018-11-14T07:35:33.172Z,12.80
2018-11-14T07:38:41.935Z,12.80
2018-11-14T07:41:14.370Z,12.80
2018-11-14T07:43:44.001Z,13.10
2018-11-14T07:46:13.828Z,12.90
2018-11-14T07:48:43.546Z,13.00
2018-11-14T07:51:12.671Z,12.70
2018-11-14T07:53:42.402Z,12.60
2018-11-14T07:56:11.611Z,12.70
2018-11-14T07:58:40.775Z,13.00
2018-11-14T08:01:10.107Z,13.10
2018-11-14T08:03:39.356Z,13.10
2018-11-14T08:06:08.602Z,12.80
2018-11-14T08:08:37.647Z,12.80
2018-11-14T08:11:07.464Z,11.90
2018-11-14T08:13:37.557Z,12.20
2018-11-14T08:16:06.990Z,12.30
2018-11-14T08:18:36.232Z,12.30
2018-11-14T08:21:05.887Z,12.30
2018-11-14T08:23:35.080Z,11.60
2018-11-14T08:26:04.582Z,12.00
2018-11-14T08:28:33.891Z,11.80
2018-11-14T08:31:03.135Z,12.10
2018-11-14T08:33:32.193Z,11.60
2018-11-14T08:36:01.441Z,11.30
2018-11-14T08:38:30.587Z,10.70
2018-11-14T08:40:59.941Z,11.30
2018-11-14T08:43:29.187Z,11.40
2018-11-14T08:45:58.431Z,11.70
2018-11-14T08:48:27.596Z,11.30
2018-11-14T08:50:56.918Z,10.80
2018-11-14T08:53:26.102Z,10.70
2018-11-14T08:55:55.436Z,10.60
2018-11-14T08:58:24.842Z,11.50
2018-11-14T09:00:54.133Z,11.90
2018-11-14T09:03:23.623Z,11.00
2018-11-14T09:05:53.043Z,10.70
2018-11-14T09:08:22.197Z,10.30
2018-11-14T09:10:51.431Z,10.90
2018-11-14T09:13:20.814Z,10.50
2018-11-14T09:15:49.873Z,10.60
2018-11-14T09:18:19.402Z,10.30
2018-11-14T09:20:48.613Z,10.60
2018-11-14T09:23:18.726Z,10.60
2018-11-14T09:25:47.904Z,11.00
2018-11-14T09:28:18.057Z,10.90
2018-11-14T09:30:47.224Z,11.60
2018-11-14T09:33:16.535Z,11.70
2018-11-14T09:35:45.624Z,13.20
2018-11-14T09:38:15.423Z,13.20
2018-11-14T09:40:44.634Z,13.80
2018-11-14T09:43:13.851Z,13.90
2018-11-14T09:45:43.021Z,13.40
2018-11-14T09:48:12.248Z,13.40
2018-11-14T09:50:41.511Z,13.30
2018-11-14T09:53:10.941Z,13.00
2018-11-14T09:55:40.311Z,12.60
2018-11-14T09:58:09.663Z,12.40
2018-11-14T10:00:38.961Z,12.50
2018-11-14T10:03:14.810Z,13.20
2018-11-14T10:05:43.920Z,13.20
2018-11-14T10:08:13.411Z,13.50
2018-11-14T10:10:42.937Z,12.80
2018-11-14T10:13:12.272Z,12.90
2018-11-14T10:15:41.526Z,12.70
2018-11-14T10:18:10.941Z,13.10
2018-11-14T10:20:40.184Z,12.50
2018-11-14T10:23:09.623Z,12.00
2018-11-14T10:25:38.888Z,11.90
2018-11-14T10:28:08.175Z,11.90
2018-11-14T10:30:37.543Z,11.70
2018-11-14T10:33:06.637Z,11.70
2018-11-14T10:35:35.897Z,11.60
2018-11-14T10:38:05.333Z,11.50
2018-11-14T10:40:34.387Z,11.50
2018-11-14T10:43:03.778Z,11.70
2018-11-14T10:45:33.117Z,11.60
2018-11-14T10:48:02.352Z,11.40
2018-11-14T10:50:31.587Z,11.70
2018-11-14T10:53:00.643Z,11.60
2018-11-14T10:55:30.802Z,11.70
2018-11-14T10:58:00.049Z,12.00
2018-11-14T11:00:34.612Z,12.00
2018-11-14T11:03:08.863Z,12.20
2018-11-14T11:05:44.757Z,12.20
2018-11-14T11:08:19.777Z,12.00
2018-11-14T11:10:54.267Z,12.10
2018-11-14T11:13:28.639Z,12.10
2018-11-14T11:16:03.035Z,12.40
2018-11-14T11:18:34.204Z,12.30
2018-11-14T11:21:03.675Z,12.20
2018-11-14T11:23:32.780Z,12.50
2018-11-14T11:26:02.040Z,12.70
2018-11-14T11:28:31.277Z,12.50
2018-11-14T11:31:00.514Z,12.00
2018-11-14T11:33:29.663Z,12.40
2018-11-14T11:35:58.899Z,12.00
2018-11-14T11:38:28.068Z,12.20
2018-11-14T11:40:57.291Z,12.20
2018-11-14T11:43:26.603Z,12.00
2018-11-14T11:45:55.928Z,12.00
2018-11-14T11:48:25.234Z,12.40
2018-11-14T11:50:54.433Z,12.00
2018-11-14T11:53:24.247Z,11.90
2018-11-14T11:55:53.727Z,11.80
2018-11-14T11:58:22.914Z,12.00
2018-11-14T12:00:52.088Z,11.80
2018-11-14T12:03:21.311Z,11.90
2018-11-14T12:05:50.473Z,11.90
2018-11-14T12:08:19.809Z,11.80
2018-11-14T12:10:49.139Z,11.70
2018-11-14T12:13:18.319Z,11.90
2018-11-14T12:15:48.150Z,12.00
2018-11-14T12:18:17.303Z,11.90
2018-11-14T12:20:46.685Z,11.90
2018-11-14T12:23:16.016Z,11.90
2018-11-14T12:25:45.268Z,12.20
2018-11-14T12:28:14.604Z,12.20
2018-11-14T12:30:43.917Z,12.40
2018-11-14T12:33:13.100Z,12.40
2018-11-14T12:35:42.564Z,12.70
2018-11-14T12:38:11.696Z,12.60
2018-11-14T12:40:40.869Z,12.60
2018-11-14T12:43:10.322Z,12.80
2018-11-14T12:45:39.669Z,12.90
2018-11-14T12:48:08.899Z,12.70
2018-11-14T12:50:38.375Z,12.70
2018-11-14T12:53:07.932Z,12.70
2018-11-14T12:55:37.075Z,12.80
2018-11-14T12:58:06.495Z,13.10
2018-11-14T13:00:35.668Z,12.90
2018-11-14T13:03:05.011Z,12.50
2018-11-14T13:05:34.271Z,12.80
2018-11-14T13:08:03.619Z,12.50
2018-11-14T13:10:32.908Z,12.40
2018-11-14T13:13:02.735Z,12.60
2018-11-14T13:15:32.076Z,12.70
2018-11-14T13:18:01.528Z,12.50
2018-11-14T13:20:30.783Z,12.70
2018-11-14T13:23:00.123Z,13.10
2018-11-14T13:25:29.277Z,12.90
2018-11-14T13:27:58.613Z,12.60
2018-11-14T13:30:27.702Z,12.60
2018-11-14T13:32:56.779Z,12.50
2018-11-14T13:35:26.417Z,12.40
2018-11-14T13:37:55.567Z,12.70
2018-11-14T13:40:24.710Z,12.70
2018-11-14T13:42:53.758Z,12.70
2018-11-14T13:45:22.992Z,12.70
2018-11-14T13:47:52.169Z,12.90
2018-11-14T13:50:22.486Z,13.20
2018-11-14T13:52:52.047Z,13.00
2018-11-14T13:55:21.905Z,13.10
2018-11-14T13:57:52.092Z,13.40
2018-11-14T14:00:22.352Z,13.20
2018-11-14T14:02:52.546Z,12.70
2018-11-14T14:05:22.883Z,12.50
2018-11-14T14:07:52.130Z,12.70
2018-11-14T14:10:21.744Z,12.70
2018-11-14T14:12:52.093Z,12.80
2018-11-14T14:15:22.538Z,12.90
2018-11-14T14:17:52.137Z,12.90
2018-11-14T14:20:21.738Z,12.80
2018-11-14T14:22:50.952Z,12.50
2018-11-14T14:25:21.167Z,12.80
2018-11-14T14:27:50.271Z,12.90
2018-11-14T14:30:21.555Z,13.10
2018-11-14T14:32:50.711Z,13.30
2018-11-14T14:35:21.042Z,12.80
2018-11-14T14:37:51.161Z,12.70
2018-11-14T14:40:21.479Z,12.80
2018-11-14T14:42:50.835Z,13.00
2018-11-14T14:45:22.175Z,13.00
2018-11-14T14:47:51.446Z,13.10
2018-11-14T14:50:21.160Z,13.10
2018-11-14T14:52:50.441Z,13.20
2018-11-14T14:55:22.503Z,13.00
2018-11-14T14:57:51.702Z,13.10
2018-11-14T15:00:22.662Z,13.40
2018-11-14T15:02:51.987Z,13.30
2018-11-14T15:05:21.380Z,13.40
2018-11-14T15:07:50.676Z,13.60
2018-11-14T15:10:21.798Z,13.60
2018-11-14T15:12:51.011Z,13.30
2018-11-14T15:15:20.760Z,13.40
2018-11-14T15:17:49.928Z,13.60
2018-11-14T15:20:23.842Z,13.70
2018-11-14T15:22:53.424Z,13.80
2018-11-14T15:25:23.568Z,13.80
2018-11-14T15:27:53.133Z,13.90
2018-11-14T15:30:27.579Z,14.00
2018-11-14T15:32:56.843Z,14.00
2018-11-14T15:35:26.959Z,14.10
2018-11-14T15:37:56.174Z,14.10
2018-11-14T15:40:26.519Z,14.00
2018-11-14T15:42:55.844Z,13.90
2018-11-14T15:45:26.275Z,13.80
2018-11-14T15:47:55.597Z,13.70
2018-11-14T15:50:26.000Z,13.60
2018-11-14T15:52:56.051Z,13.70
2018-11-14T15:55:25.454Z,13.80
2018-11-14T15:57:55.059Z,13.90
2018-11-14T16:00:25.527Z,13.90
2018-11-14T16:02:54.927Z,13.90
2018-11-14T16:05:25.315Z,14.00
2018-11-14T16:07:55.572Z,14.10
2018-11-14T16:10:25.516Z,14.10
2018-11-14T16:12:54.892Z,14.10
2018-11-14T16:15:25.437Z,14.10
2018-11-14T16:17:55.414Z,14.00
2018-11-14T16:20:25.263Z,13.90
2018-11-14T16:22:54.419Z,13.80
2018-11-14T16:25:24.378Z,13.80
2018-11-14T16:27:54.998Z,14.00
2018-11-14T16:30:27.175Z,14.10
2018-11-14T16:32:57.763Z,14.20
2018-11-14T16:35:27.096Z,14.20
2018-11-14T16:37:56.325Z,14.20
2018-11-14T16:40:26.781Z,14.20
2018-11-14T16:42:56.949Z,14.10
2018-11-14T16:45:26.357Z,14.10
2018-11-14T16:47:55.592Z,14.10
2018-11-14T16:50:25.093Z,14.10
2018-11-14T16:52:54.201Z,14.10
2018-11-14T16:55:23.948Z,14.10
2018-11-14T16:57:54.271Z,14.10
2018-11-14T17:00:24.843Z,14.10
2018-11-14T17:02:53.962Z,14.10
2018-11-14T17:05:23.956Z,14.00
2018-11-14T17:07:53.375Z,14.00
2018-11-14T17:10:23.083Z,14.10
2018-11-14T17:12:53.676Z,14.10
2018-11-14T17:15:24.043Z,14.10
2018-11-14T17:17:53.444Z,14.00
2018-11-14T17:20:23.427Z,14.00
2018-11-14T17:22:53.531Z,14.00
2018-11-14T17:25:22.766Z,14.00
2018-11-14T17:27:51.866Z,14.00
2018-11-14T17:30:22.597Z,14.00
2018-11-14T17:32:52.066Z,13.90
2018-11-14T17:35:21.343Z,14.00
2018-11-14T17:37:50.604Z,13.90
2018-11-14T17:40:21.857Z,13.60
2018-11-14T17:42:51.899Z,13.80
2018-11-14T17:45:23.176Z,13.90
2018-11-14T17:47:52.603Z,13.90
2018-11-14T17:50:24.897Z,13.80
2018-11-14T17:52:54.691Z,13.90
2018-11-14T17:55:24.385Z,13.80
2018-11-14T17:57:53.598Z,13.90
2018-11-14T18:00:25.163Z,13.70
2018-11-14T18:02:54.453Z,13.60
2018-11-14T18:05:24.891Z,13.60
2018-11-14T18:07:54.500Z,13.70
2018-11-14T18:10:24.919Z,13.80
2018-11-14T18:12:55.390Z,13.80
2018-11-14T18:15:24.774Z,13.70
2018-11-14T18:17:54.504Z,13.80
2018-11-14T18:20:25.069Z,13.70
2018-11-14T18:22:54.736Z,13.50
2018-11-14T18:25:23.920Z,13.60
2018-11-14T18:27:53.088Z,13.60
2018-11-14T18:30:23.561Z,13.50
2018-11-14T18:32:53.330Z,13.20
2018-11-14T18:35:23.216Z,13.00
2018-11-14T18:37:53.183Z,13.20
2018-11-14T18:40:23.567Z,13.30
2018-11-14T18:42:52.879Z,13.20
2018-11-14T18:45:27.946Z,12.90
2018-11-14T18:47:57.808Z,12.70
2018-11-14T18:50:27.312Z,12.50
2018-11-14T18:52:56.583Z,12.70
2018-11-14T18:55:28.324Z,12.20
2018-11-14T18:57:57.984Z,12.10
2018-11-14T19:00:29.213Z,12.20
2018-11-14T19:02:58.587Z,12.50
2018-11-14T19:05:27.998Z,11.60
2018-11-14T19:07:57.383Z,11.50
2018-11-14T19:10:28.182Z,11.30
2018-11-14T19:12:57.467Z,11.40
2018-11-14T19:15:28.204Z,11.40
2018-11-14T19:17:57.948Z,10.80
2018-11-14T19:20:28.392Z,11.60
2018-11-14T19:22:58.402Z,12.00
2018-11-14T19:25:29.887Z,11.50
2018-11-14T19:27:59.351Z,11.90
2018-11-14T19:30:29.773Z,11.60
2018-11-14T19:33:00.070Z,11.60
2018-11-14T19:35:29.301Z,12.40
2018-11-14T19:37:58.918Z,12.60
2018-11-14T19:40:36.303Z,11.90
2018-11-14T19:43:07.700Z,11.50
2018-11-14T19:45:37.999Z,11.40
2018-11-14T19:48:07.649Z,11.20
2018-11-14T19:50:37.243Z,11.00
2018-11-14T19:53:06.902Z,10.90
2018-11-14T19:55:36.705Z,11.00
2018-11-14T19:58:06.488Z,11.60
2018-11-14T20:00:36.755Z,11.70
2018-11-14T20:03:06.660Z,11.20
2018-11-14T20:05:36.016Z,11.60
2018-11-14T20:08:05.556Z,11.10
2018-11-14T20:10:34.966Z,11.90
2018-11-14T20:13:04.166Z,11.40
2018-11-14T20:15:34.603Z,10.70
2018-11-14T20:18:04.543Z,10.50
2018-11-14T20:20:34.941Z,10.60
2018-11-14T20:23:05.368Z,10.60
2018-11-14T20:25:34.661Z,10.40
2018-11-14T20:28:03.946Z,10.30
2018-11-14T20:30:34.579Z,10.80
2018-11-14T20:33:06.437Z,10.10
2018-11-14T20:35:35.802Z,11.30
2018-11-14T20:38:05.099Z,11.50
2018-11-14T20:40:36.065Z,11.30
2018-11-14T20:43:05.437Z,10.90
2018-11-14T20:45:34.924Z,10.90
2018-11-14T20:48:04.320Z,11.70
2018-11-14T20:50:33.579Z,11.80
2018-11-14T20:53:04.221Z,11.50
2018-11-14T20:55:34.102Z,11.00
2018-11-14T20:58:03.544Z,11.30
2018-11-14T21:00:34.005Z,11.90
2018-11-14T21:03:03.271Z,11.20
2018-11-14T21:05:32.725Z,11.50
2018-11-14T21:08:01.920Z,11.10
2018-11-14T21:10:32.322Z,11.10
2018-11-14T21:13:02.148Z,11.00
2018-11-14T21:15:32.873Z,10.60
2018-11-14T21:18:02.762Z,10.70
2018-11-14T21:20:32.137Z,11.10
2018-11-14T21:23:01.322Z,11.30
2018-11-14T21:25:30.759Z,11.50
2018-11-14T21:27:59.942Z,11.30
2018-11-14T21:30:29.857Z,11.20
2018-11-14T21:32:59.021Z,10.60
2018-11-14T21:35:31.380Z,10.60
2018-11-14T21:38:01.666Z,10.90
2018-11-14T21:40:30.952Z,11.00
2018-11-14T21:43:00.330Z,11.00
2018-11-14T21:45:30.169Z,10.30
2018-11-14T21:48:04.917Z,10.80
2018-11-14T21:50:34.394Z,10.60
2018-11-14T21:53:03.687Z,10.80
2018-11-14T21:55:33.307Z,11.10
2018-11-14T21:58:02.705Z,10.80
2018-11-14T22:00:32.984Z,11.40
2018-11-14T22:03:02.486Z,11.40
2018-11-14T22:05:32.663Z,10.40
2018-11-14T22:08:02.255Z,10.80
2018-11-14T22:10:31.564Z,11.00
2018-11-14T22:13:00.807Z,10.70
2018-11-14T22:15:30.728Z,11.30
2018-11-14T22:17:59.923Z,11.30
2018-11-14T22:20:29.691Z,10.60
2018-11-14T22:22:58.867Z,10.60
2018-11-14T22:25:28.919Z,10.30
2018-11-14T22:27:58.420Z,10.60
2018-11-14T22:30:30.467Z,10.60
2018-11-14T22:32:59.889Z,10.70
2018-11-14T22:35:30.160Z,10.80
2018-11-14T22:37:59.476Z,10.80
2018-11-14T22:40:30.606Z,10.90
2018-11-14T22:42:59.819Z,10.50
2018-11-14T22:45:32.099Z,10.20
2018-11-14T22:48:01.282Z,10.00
2018-11-14T22:50:30.539Z,9.90
2018-11-14T22:52:59.887Z,9.80
2018-11-14T22:55:29.139Z,9.90
2018-11-14T22:57:58.488Z,10.50
2018-11-14T23:00:46.222Z,10.40
2018-11-14T23:03:15.503Z,9.90
2018-11-14T23:05:44.775Z,9.70
2018-11-14T23:08:13.947Z,10.10
2018-11-14T23:10:43.168Z,10.00
2018-11-14T23:13:13.179Z,9.40
2018-11-14T23:15:42.602Z,10.40
2018-11-14T23:18:11.823Z,11.20
2018-11-14T23:20:41.100Z,10.60
2018-11-14T23:23:10.479Z,10.90
2018-11-14T23:25:39.787Z,10.80
2018-11-14T23:28:09.135Z,11.00
2018-11-14T23:30:38.278Z,11.40
2018-11-14T23:33:07.423Z,11.50
2018-11-14T23:35:36.470Z,11.70
2018-11-14T23:38:06.483Z,11.50
2018-11-14T23:40:35.589Z,11.10
2018-11-14T23:43:04.968Z,10.70
2018-11-14T23:45:34.012Z,11.10
2018-11-14T23:48:03.162Z,10.60
2018-11-14T23:50:32.983Z,10.70
2018-11-14T23:53:02.955Z,10.90
2018-11-14T23:55:32.704Z,10.80
2018-11-14T23:58:01.909Z,10.90
